createdAt,value
2022-09-11T00:02:16.052Z,14.281616
2022-09-11T00:05:41.197Z,14.251404
2022-09-11T00:09:06.417Z,14.251404
2022-09-11T00:12:31.640Z,14.291687
2022-09-11T00:15:56.856Z,14.291687
2022-09-11T00:19:21.998Z,14.321899
2022-09-11T00:22:47.220Z,14.321899
2022-09-11T00:26:12.419Z,14.281616
2022-09-11T00:29:37.641Z,14.271545
2022-09-11T00:33:02.811Z,14.271545
2022-09-11T00:36:28.045Z,14.241333
2022-09-11T00:39:53.305Z,14.221191
2022-09-11T00:43:18.528Z,14.241333
2022-09-11T00:46:43.771Z,14.251404
2022-09-11T00:50:08.978Z,14.211121
2022-09-11T00:53:34.335Z,14.221191
2022-09-11T00:56:59.448Z,14.241333
2022-09-11T01:00:24.665Z,14.241333
2022-09-11T01:03:49.885Z,14.251404
2022-09-11T01:07:15.062Z,14.211121
2022-09-11T01:10:40.293Z,14.221191
2022-09-11T01:14:05.509Z,14.251404
2022-09-11T01:17:30.741Z,14.241333
2022-09-11T01:20:55.920Z,14.241333
2022-09-11T01:24:21.116Z,14.251404
2022-09-11T01:27:46.330Z,14.271545
2022-09-11T01:31:11.607Z,14.291687
2022-09-11T01:34:36.682Z,14.321899
2022-09-11T01:38:01.967Z,14.321899
2022-09-11T01:41:27.132Z,14.291687
2022-09-11T01:44:52.369Z,14.33197
2022-09-11T01:48:17.546Z,14.352112
2022-09-11T01:51:42.793Z,14.291687
2022-09-11T01:55:08.024Z,14.291687
2022-09-11T01:58:33.157Z,14.291687
2022-09-11T02:01:58.407Z,14.281616
2022-09-11T02:05:23.625Z,14.271545
2022-09-11T02:08:48.855Z,14.281616
2022-09-11T02:12:14.064Z,14.221191
2022-09-11T02:15:39.237Z,14.211121
2022-09-11T02:19:04.464Z,14.180908
2022-09-11T02:22:29.649Z,14.20105
2022-09-11T02:25:54.853Z,14.211121
2022-09-11T02:29:20.061Z,14.20105
2022-09-11T02:32:45.253Z,14.180908
2022-09-11T02:36:10.470Z,14.170837
2022-09-11T02:39:35.740Z,14.180908
2022-09-11T02:43:00.879Z,14.20105
2022-09-11T02:46:26.133Z,14.241333
2022-09-11T02:49:51.325Z,14.20105
2022-09-11T02:53:16.569Z,14.170837
2022-09-11T02:56:41.799Z,14.170837
2022-09-11T03:00:06.983Z,14.150696
2022-09-11T03:03:32.234Z,14.150696
2022-09-11T03:06:57.391Z,14.170837
2022-09-11T03:10:22.598Z,14.150696
2022-09-11T03:13:47.806Z,14.150696
2022-09-11T03:17:13.014Z,14.170837
2022-09-11T03:20:38.230Z,14.180908
2022-09-11T03:24:03.384Z,14.170837
2022-09-11T03:27:28.583Z,14.100342
2022-09-11T03:30:53.795Z,14.090271
2022-09-11T03:34:19.020Z,14.039917
2022-09-11T03:37:44.268Z,14.039917
2022-09-11T03:41:09.465Z,13.999634
2022-09-11T03:44:34.621Z,14.019775
2022-09-11T03:47:59.780Z,14.039917
2022-09-11T03:51:25.033Z,14.029846
2022-09-11T03:54:50.285Z,14.019775
2022-09-11T03:58:15.458Z,14.029846
2022-09-11T04:01:40.756Z,14.019775
2022-09-11T04:05:05.893Z,13.969421
2022-09-11T04:08:31.085Z,13.908997
2022-09-11T04:11:56.278Z,13.919067
2022-09-11T04:15:21.465Z,13.94928
2022-09-11T04:18:46.698Z,13.919067
2022-09-11T04:22:11.862Z,13.908997
2022-09-11T04:25:37.097Z,13.919067
2022-09-11T04:29:02.326Z,13.919067
2022-09-11T04:32:27.483Z,13.888855
2022-09-11T04:35:52.706Z,13.848572
2022-09-11T04:39:17.939Z,13.868713
2022-09-11T04:42:43.146Z,13.848572
2022-09-11T04:46:08.376Z,13.888855
2022-09-11T04:49:33.522Z,13.94928
2022-09-11T04:52:58.752Z,13.94928
2022-09-11T04:56:24.005Z,13.908997
2022-09-11T04:59:49.218Z,13.959351
2022-09-11T05:03:14.472Z,13.94928
2022-09-11T05:06:39.650Z,13.94928
2022-09-11T05:10:04.871Z,13.919067
2022-09-11T05:13:33.102Z,13.959351
2022-09-11T05:16:55.277Z,13.94928
2022-09-11T05:20:20.501Z,13.989563
2022-09-11T05:23:45.681Z,13.959351
2022-09-11T05:27:10.917Z,13.989563
2022-09-11T05:30:36.142Z,14.019775
2022-09-11T05:34:01.362Z,13.999634
2022-09-11T05:37:26.612Z,14.060059
2022-09-11T05:40:51.782Z,14.019775
2022-09-11T05:44:17.012Z,14.019775
2022-09-11T05:47:42.243Z,14.029846
2022-09-11T05:51:07.477Z,13.999634
2022-09-11T05:54:32.707Z,13.999634
2022-09-11T05:57:57.875Z,13.989563
2022-09-11T06:01:23.112Z,14.039917
2022-09-11T06:04:48.248Z,14.090271
2022-09-11T06:08:13.463Z,14.180908
2022-09-11T06:11:38.719Z,14.20105
2022-09-11T06:15:03.920Z,14.241333
2022-09-11T06:18:29.185Z,14.241333
2022-09-11T06:21:54.358Z,14.241333
2022-09-11T06:25:19.570Z,14.251404
2022-09-11T06:28:44.896Z,14.241333
2022-09-11T06:32:10.055Z,14.251404
2022-09-11T06:35:35.258Z,14.271545
2022-09-11T06:39:00.506Z,14.321899
2022-09-11T06:42:25.695Z,14.362183
2022-09-11T06:45:50.931Z,14.402466
2022-09-11T06:49:16.058Z,14.392395
2022-09-11T06:52:41.268Z,14.462891
2022-09-11T06:56:06.429Z,14.472961
2022-09-11T06:59:31.622Z,14.513245
2022-09-11T07:02:56.835Z,14.553528
2022-09-11T07:06:22.004Z,14.553528
2022-09-11T07:09:47.153Z,14.573669
2022-09-11T07:13:12.331Z,14.573669
2022-09-11T07:16:37.558Z,14.58374
2022-09-11T07:20:02.695Z,14.573669
2022-09-11T07:23:27.844Z,14.573669
2022-09-11T07:26:53.016Z,14.573669
2022-09-11T07:30:18.213Z,14.573669
2022-09-11T07:33:43.411Z,14.553528
2022-09-11T07:37:08.582Z,14.603882
2022-09-11T07:40:33.737Z,14.644165
2022-09-11T07:43:58.923Z,14.724731
2022-09-11T07:47:24.120Z,14.70459
2022-09-11T07:50:49.274Z,14.754944
2022-09-11T07:54:14.479Z,14.795227
2022-09-11T07:57:39.641Z,14.805298
2022-09-11T08:01:04.842Z,14.885864
2022-09-11T08:04:30.010Z,14.885864
2022-09-11T08:07:55.178Z,14.916077
2022-09-11T08:11:20.380Z,14.916077
2022-09-11T08:14:45.528Z,14.95636
2022-09-11T08:18:10.739Z,14.976501
2022-09-11T08:21:35.933Z,15.016785
2022-09-11T08:25:01.104Z,15.026855
2022-09-11T08:28:26.347Z,15.016785
2022-09-11T08:31:51.507Z,15.067139
2022-09-11T08:35:16.695Z,15.137634
2022-09-11T08:38:41.861Z,15.08728
2022-09-11T08:42:07.038Z,15.08728
2022-09-11T08:45:32.263Z,15.127563
2022-09-11T08:48:57.390Z,15.167847
2022-09-11T08:52:22.582Z,15.228271
2022-09-11T08:55:47.752Z,15.248413
2022-09-11T08:59:12.917Z,15.278625
2022-09-11T09:02:38.106Z,15.248413
2022-09-11T09:06:03.259Z,15.278625
2022-09-11T09:09:31.825Z,15.268555
2022-09-11T09:12:53.643Z,15.248413
2022-09-11T09:16:18.906Z,15.288696
2022-09-11T09:19:44.077Z,15.379333
2022-09-11T09:23:09.241Z,15.379333
2022-09-11T09:26:38.271Z,15.469971
2022-09-11T09:29:59.628Z,15.530396
2022-09-11T09:33:24.788Z,15.641174
2022-09-11T09:36:49.991Z,15.621033
2022-09-11T09:40:15.187Z,15.671387
2022-09-11T09:43:40.337Z,15.762024
2022-09-11T09:47:05.494Z,15.872803
2022-09-11T09:50:30.673Z,15.96344
2022-09-11T09:53:55.846Z,16.023865
2022-09-11T09:57:21.006Z,16.023865
2022-09-11T10:00:46.178Z,15.96344
2022-09-11T10:04:11.392Z,15.923157
2022-09-11T10:07:36.592Z,15.96344
2022-09-11T10:11:01.787Z,16.054077
2022-09-11T10:14:49.654Z,16.235352
2022-09-11T10:17:52.100Z,16.305847
2022-09-11T10:21:17.279Z,16.305847
2022-09-11T10:24:42.479Z,16.275635
2022-09-11T10:28:07.635Z,16.154785
2022-09-11T10:31:32.816Z,16.044006
2022-09-11T10:34:57.991Z,16.003723
2022-09-11T10:38:23.145Z,15.973511
2022-09-11T10:41:48.328Z,15.973511
2022-09-11T10:45:13.535Z,15.96344
2022-09-11T10:48:38.745Z,16.003723
2022-09-11T10:52:03.884Z,16.265564
2022-09-11T10:55:29.067Z,16.527405
2022-09-11T10:58:55.185Z,16.607971
2022-09-11T11:02:20.405Z,16.678467
2022-09-11T11:05:45.491Z,16.708679
2022-09-11T11:09:10.685Z,16.628113
2022-09-11T11:12:35.856Z,16.517334
2022-09-11T11:16:01.075Z,16.386414
2022-09-11T11:19:26.306Z,16.265564
2022-09-11T11:22:51.481Z,16.225281
2022-09-11T11:26:16.676Z,16.265564
2022-09-11T11:29:41.873Z,16.456909
2022-09-11T11:33:07.054Z,16.678467
2022-09-11T11:36:32.356Z,16.809387
2022-09-11T11:39:57.571Z,16.748962
2022-09-11T11:43:22.694Z,16.668396
2022-09-11T11:46:47.866Z,16.5979
2022-09-11T11:50:13.254Z,16.527405
2022-09-11T11:53:38.503Z,16.406555
2022-09-11T11:57:03.715Z,16.295776
2022-09-11T12:00:28.868Z,16.245422
2022-09-11T12:03:54.162Z,16.144714
2022-09-11T12:07:19.255Z,16.114502
2022-09-11T12:10:44.458Z,16.144714
2022-09-11T12:14:09.604Z,16.114502
2022-09-11T12:17:34.793Z,16.054077
2022-09-11T12:20:59.978Z,16.074219
2022-09-11T12:24:25.244Z,16.054077
2022-09-11T12:27:50.438Z,16.08429
2022-09-11T12:31:15.649Z,16.114502
2022-09-11T12:34:40.769Z,16.154785
2022-09-11T12:38:05.945Z,16.225281
2022-09-11T12:41:31.111Z,16.275635
2022-09-11T12:44:56.332Z,16.325989
2022-09-11T12:48:21.475Z,16.265564
2022-09-11T12:51:46.625Z,16.265564
2022-09-11T12:55:11.822Z,16.275635
2022-09-11T12:58:37.007Z,16.275635
2022-09-11T13:02:02.352Z,16.275635
2022-09-11T13:05:27.393Z,16.265564
2022-09-11T13:08:52.567Z,16.265564
2022-09-11T13:12:17.736Z,16.376343
2022-09-11T13:15:42.957Z,16.497192
2022-09-11T13:19:08.135Z,16.628113
2022-09-11T13:22:33.284Z,16.789246
2022-09-11T13:25:58.486Z,17.000732
2022-09-11T13:29:23.672Z,17.182007
2022-09-11T13:32:48.827Z,17.433777
2022-09-11T13:36:14.035Z,17.514343
2022-09-11T13:39:39.217Z,17.494202
2022-09-11T13:43:04.361Z,17.262573
2022-09-11T13:46:29.524Z,16.960449
2022-09-11T13:49:54.710Z,16.728821
2022-09-11T13:53:19.917Z,16.497192
2022-09-11T13:56:45.062Z,16.305847
2022-09-11T14:00:10.241Z,16.235352
2022-09-11T14:03:35.424Z,16.195068
2022-09-11T14:07:00.630Z,16.195068
2022-09-11T14:10:25.851Z,16.205139
2022-09-11T14:13:51.001Z,16.235352
2022-09-11T14:17:16.214Z,16.235352
2022-09-11T14:20:41.393Z,16.235352
2022-09-11T14:24:06.602Z,16.265564
2022-09-11T14:27:31.817Z,16.295776
2022-09-11T15:04:41.666Z,16.708679
2022-09-11T15:08:06.916Z,16.668396
2022-09-11T15:11:34.273Z,16.678467
2022-09-11T15:14:58.678Z,16.658325
2022-09-11T15:18:22.628Z,16.527405
2022-09-11T15:21:47.899Z,16.426697
2022-09-11T15:25:13.145Z,16.386414
2022-09-11T15:28:38.378Z,16.245422
2022-09-11T15:32:03.597Z,16.305847
2022-09-11T15:35:32.700Z,16.245422
2022-09-11T15:38:53.976Z,16.235352
2022-09-11T15:42:19.152Z,16.295776
2022-09-11T15:45:44.397Z,16.325989
2022-09-11T15:49:09.543Z,16.325989
2022-09-11T15:52:34.818Z,16.295776
2022-09-11T15:56:00.004Z,16.295776
2022-09-11T15:59:25.166Z,16.235352
2022-09-11T16:02:50.516Z,16.174927
2022-09-11T16:06:15.670Z,16.09436
2022-09-11T16:09:40.868Z,16.09436
2022-09-11T16:13:06.068Z,16.08429
2022-09-11T16:16:31.214Z,16.074219
2022-09-11T16:19:56.388Z,16.054077
2022-09-11T16:23:21.566Z,16.013794
2022-09-11T16:26:47.309Z,16.013794
2022-09-11T16:30:43.684Z,15.96344
2022-09-11T16:33:37.643Z,16.044006
2022-09-11T16:37:02.814Z,16.003723
2022-09-11T16:40:28.008Z,16.023865
2022-09-11T16:43:53.158Z,16.023865
2022-09-11T16:47:18.729Z,16.013794
2022-09-11T16:50:43.852Z,16.023865
2022-09-11T16:54:09.038Z,16.044006
2022-09-11T16:57:34.235Z,15.96344
2022-09-11T17:00:59.414Z,15.973511
2022-09-11T17:04:24.575Z,15.943298
2022-09-11T17:07:49.710Z,15.903015
2022-09-11T17:11:30.226Z,15.923157
2022-09-11T17:14:55.399Z,15.892944
2022-09-11T17:18:20.570Z,15.862732
2022-09-11T17:21:45.810Z,15.862732
2022-09-11T17:25:10.952Z,15.782166
2022-09-11T17:28:36.120Z,15.671387
2022-09-11T17:32:24.088Z,15.570679
2022-09-11T17:35:26.516Z,15.429688
2022-09-11T17:38:51.747Z,15.268555
2022-09-11T17:42:16.923Z,15.137634
2022-09-11T17:45:42.386Z,15.016785
2022-09-11T17:49:07.620Z,14.946289
2022-09-11T17:52:32.779Z,14.855652
2022-09-11T17:55:57.989Z,14.734802
2022-09-11T17:59:23.140Z,14.603882
2022-09-11T18:02:48.347Z,14.462891
2022-09-11T18:06:13.534Z,14.352112
2022-09-11T18:09:38.746Z,14.281616
2022-09-11T18:13:03.990Z,14.251404
2022-09-11T18:16:29.242Z,14.321899
2022-09-11T18:19:54.426Z,14.251404
2022-09-11T18:23:19.760Z,14.180908
2022-09-11T18:26:44.842Z,14.090271
2022-09-11T18:30:10.049Z,14.039917
2022-09-11T18:33:35.257Z,13.959351
2022-09-11T18:37:00.410Z,13.919067
2022-09-11T18:40:25.642Z,13.848572
2022-09-11T18:43:50.817Z,13.808289
2022-09-11T18:47:16.037Z,13.747864
2022-09-11T18:50:41.260Z,13.667297
2022-09-11T18:54:06.468Z,13.627014
2022-09-11T18:57:31.663Z,13.596802
2022-09-11T19:00:56.992Z,13.516235
2022-09-11T19:04:22.109Z,13.516235
2022-09-11T19:07:47.277Z,13.506165
2022-09-11T19:11:12.460Z,13.516235
2022-09-11T19:14:37.666Z,13.506165
2022-09-11T19:18:02.838Z,13.546448
2022-09-11T19:21:28.059Z,13.536377
2022-09-11T19:24:53.294Z,13.536377
2022-09-11T19:28:18.495Z,13.475952
2022-09-11T19:31:43.737Z,13.435669
2022-09-11T19:35:08.895Z,13.375244
2022-09-11T19:38:34.134Z,13.334961
2022-09-11T19:41:59.746Z,13.294678
2022-09-11T19:45:24.577Z,13.294678
2022-09-11T19:48:49.804Z,13.304749
2022-09-11T19:52:15.009Z,13.355103
2022-09-11T19:55:40.305Z,13.44574
2022-09-11T19:59:05.531Z,13.566589
2022-09-11T20:02:30.737Z,13.657227
2022-09-11T20:05:55.982Z,13.667297
2022-09-11T20:09:36.727Z,13.616943
2022-09-11T20:12:46.488Z,13.516235
2022-09-11T20:16:11.715Z,13.375244
2022-09-11T20:19:36.957Z,13.294678
2022-09-11T20:23:02.156Z,13.224182
2022-09-11T20:26:27.358Z,13.123474
2022-09-11T20:29:52.616Z,13.042908
2022-09-11T20:33:17.818Z,13.032837
2022-09-11T20:36:43.045Z,13.002625
2022-09-11T20:40:08.301Z,12.962341
2022-09-11T20:43:33.451Z,12.922058
2022-09-11T20:47:00.430Z,12.891846
2022-09-11T20:50:23.859Z,12.861633
2022-09-11T20:53:49.047Z,12.831421
2022-09-11T20:57:14.220Z,12.82135
2022-09-11T21:00:39.443Z,12.791138
2022-09-11T21:04:04.634Z,12.82135
2022-09-11T21:07:29.833Z,12.791138
2022-09-11T21:10:55.049Z,12.831421
2022-09-11T21:14:20.226Z,12.82135
2022-09-11T21:17:45.404Z,12.791138
2022-09-11T21:21:10.643Z,12.750854
2022-09-11T21:24:35.835Z,12.720642
2022-09-11T21:28:01.012Z,12.7005
2022-09-11T21:31:26.284Z,12.670288
2022-09-11T21:34:51.444Z,12.650146
2022-09-11T21:38:16.625Z,12.599792
2022-09-11T21:41:41.810Z,12.619934
2022-09-11T21:45:07.020Z,12.589722
2022-09-11T21:48:35.565Z,12.589722
2022-09-11T21:51:57.425Z,12.56958
2022-09-11T21:55:22.678Z,12.539368
2022-09-11T21:58:47.845Z,12.559509
2022-09-11T22:02:13.028Z,12.559509
2022-09-11T22:05:38.193Z,12.559509
2022-09-11T22:09:03.381Z,12.539368
2022-09-11T22:12:28.555Z,12.56958
2022-09-11T22:15:53.766Z,12.589722
2022-09-11T22:19:18.920Z,12.619934
2022-09-11T22:22:44.126Z,12.640076
2022-09-11T22:26:09.343Z,12.670288
2022-09-11T22:29:34.576Z,12.619934
2022-09-11T22:32:59.759Z,12.589722
2022-09-11T22:36:24.941Z,12.589722
2022-09-11T22:39:50.183Z,12.619934
2022-09-11T22:43:15.335Z,12.599792
2022-09-11T22:46:40.527Z,12.650146
2022-09-11T22:50:05.705Z,12.710571
2022-09-11T22:53:30.930Z,12.750854
2022-09-11T22:56:56.122Z,12.851562
2022-09-11T23:00:21.314Z,12.871704
2022-09-11T23:03:46.512Z,12.952271
2022-09-11T23:07:11.689Z,12.972412
2022-09-11T23:10:36.859Z,13.002625
2022-09-11T23:14:02.076Z,13.07312
2022-09-11T23:17:27.263Z,13.113403
2022-09-11T23:20:52.477Z,13.103333
2022-09-11T23:24:17.643Z,13.07312
2022-09-11T23:27:42.823Z,13.042908
2022-09-11T23:31:08.006Z,12.962341
2022-09-11T23:34:33.197Z,12.891846
2022-09-11T23:37:58.404Z,12.871704
2022-09-11T23:41:23.566Z,12.770996
2022-09-11T23:44:48.738Z,12.650146
2022-09-11T23:48:13.906Z,12.539368
2022-09-11T23:51:39.085Z,12.458801
2022-09-11T23:55:04.311Z,12.418518
2022-09-11T23:58:29.474Z,12.337952
